createdAt,value
2022-09-24T00:04:02.443Z,100294.22
2022-09-24T00:08:03.927Z,100283.91
2022-09-24T00:12:05.492Z,100277.91
2022-09-24T00:16:10.867Z,100281.34
2022-09-24T00:20:12.441Z,100277.03
2022-09-24T00:24:36.028Z,100266.69
2022-09-24T00:28:37.952Z,100272.66
2022-09-24T00:32:39.533Z,100257.88
2022-09-24T00:36:41.231Z,100260.34
2022-09-24T00:40:42.795Z,100259.38
2022-09-24T00:44:44.727Z,100256.72
2022-09-24T00:48:48.631Z,100248.00
2022-09-24T00:52:55.521Z,100242.78
2022-09-24T00:56:59.135Z,100229.72
2022-09-24T01:01:05.187Z,100233.78
2022-09-24T01:05:07.093Z,100232.78
2022-09-24T01:09:09.324Z,100222.38
2022-09-24T01:13:33.522Z,100231.72
2022-09-24T01:17:47.779Z,100235.03
2022-09-24T01:21:57.705Z,100227.19
2022-09-24T01:26:38.375Z,100228.72
2022-09-24T01:30:42.479Z,100237.03
2022-09-24T01:34:49.803Z,100228.34
2022-09-24T01:38:53.337Z,100228.25
2022-09-24T01:42:57.711Z,100221.97
2022-09-24T01:46:59.634Z,100233.81
2022-09-24T01:51:10.202Z,100225.78
2022-09-24T01:55:16.385Z,100207.72
2022-09-24T01:59:23.780Z,100196.56
2022-09-24T02:03:30.250Z,100201.66
2022-09-24T02:07:45.029Z,100193.84
2022-09-24T02:11:52.030Z,100198.88
2022-09-24T02:15:59.881Z,100190.28
2022-09-24T02:20:04.513Z,100194.47
2022-09-24T02:24:13.755Z,100189.22
2022-09-24T02:28:15.361Z,100195.09
2022-09-24T02:32:19.848Z,100189.88
2022-09-24T02:36:24.935Z,100193.94
2022-09-24T02:40:26.647Z,100194.63
2022-09-24T02:44:29.064Z,100200.38
2022-09-24T02:48:30.552Z,100190.88
2022-09-24T02:52:32.098Z,100191.69
2022-09-24T02:56:33.993Z,100204.41
2022-09-24T03:00:35.486Z,100192.41
2022-09-24T03:04:37.085Z,100193.22
2022-09-24T03:08:38.582Z,100190.56
2022-09-24T03:12:42.148Z,100193.84
2022-09-24T03:16:43.641Z,100196.28
2022-09-24T03:20:55.115Z,100194.53
2022-09-24T03:24:56.587Z,100188.53
2022-09-24T03:28:58.258Z,100178.19
2022-09-24T03:32:59.855Z,100173.00
2022-09-24T03:37:01.352Z,100165.16
2022-09-24T03:41:04.205Z,100169.44
2022-09-24T03:45:06.515Z,100155.69
2022-09-24T03:49:07.997Z,100155.84
2022-09-24T03:53:09.974Z,100148.06
2022-09-24T03:57:14.781Z,100164.19
2022-09-24T04:01:21.033Z,100173.53
2022-09-24T04:05:22.874Z,100175.22
2022-09-24T04:09:24.393Z,100179.44
2022-09-24T04:13:26.037Z,100168.19
2022-09-24T04:17:28.992Z,100156.88
2022-09-24T04:21:30.467Z,100159.34
2022-09-24T04:25:32.949Z,100155.00
2022-09-24T04:29:34.448Z,100166.06
2022-09-24T04:33:36.114Z,100159.88
2022-09-24T04:37:37.952Z,100155.53
2022-09-24T04:41:40.187Z,100159.88
2022-09-24T04:45:44.122Z,100153.94
2022-09-24T04:49:45.903Z,100153.03
2022-09-24T04:53:50.828Z,100159.69
2022-09-24T04:57:52.363Z,100159.63
2022-09-24T05:01:55.082Z,100163.16
2022-09-24T05:05:56.717Z,100165.78
2022-09-24T05:09:58.274Z,100161.63
2022-09-24T05:13:59.853Z,100166.84
2022-09-24T05:18:01.504Z,100165.97
2022-09-24T05:22:03.099Z,100170.34
2022-09-24T05:26:23.080Z,100170.38
2022-09-24T05:30:25.868Z,100178.09
2022-09-24T05:34:28.223Z,100182.44
2022-09-24T05:38:29.965Z,100172.06
2022-09-24T05:42:31.692Z,100182.25
2022-09-24T05:46:33.470Z,100195.13
2022-09-24T05:50:35.298Z,100195.44
2022-09-24T05:54:36.931Z,100187.09
2022-09-24T05:58:38.437Z,100194.97
2022-09-24T06:02:39.986Z,100196.16
2022-09-24T06:06:41.559Z,100198.97
2022-09-24T06:10:45.433Z,100182.00
2022-09-24T06:14:46.922Z,100175.34
2022-09-24T06:18:48.410Z,100181.50
2022-09-24T06:22:50.494Z,100182.44
2022-09-24T06:26:52.230Z,100184.28
2022-09-24T06:30:54.013Z,100182.72
2022-09-24T06:34:59.008Z,100182.03
2022-09-24T06:39:00.915Z,100182.97
2022-09-24T06:43:02.576Z,100189.88
2022-09-24T06:47:04.162Z,100192.81
2022-09-24T06:51:05.922Z,100203.47
2022-09-24T06:55:07.870Z,100203.63
2022-09-24T06:59:09.437Z,100218.91
2022-09-24T07:03:16.563Z,100217.69
2022-09-24T07:07:30.095Z,100203.66
2022-09-24T07:11:31.989Z,100212.22
2022-09-24T07:15:33.521Z,100206.69
2022-09-24T07:19:35.002Z,100205.50
2022-09-24T07:23:36.555Z,100205.63
2022-09-24T07:27:38.884Z,100210.91
2022-09-24T07:31:40.501Z,100213.81
2022-09-24T07:35:42.070Z,100207.22
2022-09-24T07:39:45.518Z,100199.78
2022-09-24T07:43:47.174Z,100218.38
2022-09-24T07:47:55.992Z,100206.00
2022-09-24T07:51:57.957Z,100203.00
2022-09-24T07:55:59.602Z,100198.03
2022-09-24T08:00:01.133Z,100196.47
2022-09-24T08:04:04.467Z,100201.06
2022-09-24T08:08:06.114Z,100202.25
2022-09-24T08:12:09.431Z,100203.53
2022-09-24T08:16:11.252Z,100215.00
2022-09-24T08:20:12.965Z,100223.00
2022-09-24T08:24:15.920Z,100237.66
2022-09-24T08:28:19.612Z,100233.19
2022-09-24T08:32:21.119Z,100223.66
2022-09-24T08:36:22.632Z,100221.03
2022-09-24T08:40:27.280Z,100228.94
2022-09-24T08:44:56.990Z,100213.66
2022-09-24T08:48:59.901Z,100201.75
2022-09-24T08:53:26.043Z,100201.06
2022-09-24T08:57:28.330Z,100196.84
2022-09-24T09:01:48.211Z,100190.06
2022-09-24T09:05:49.854Z,100189.16
2022-09-24T09:09:57.278Z,100196.72
2022-09-24T09:14:04.200Z,100200.00
2022-09-24T09:18:19.836Z,100202.47
2022-09-24T09:22:28.023Z,100212.78
2022-09-24T09:26:29.565Z,100217.13
2022-09-24T09:30:43.541Z,100218.84
2022-09-24T09:35:04.006Z,100221.50
2022-09-24T09:39:32.611Z,100211.28
2022-09-24T09:43:35.280Z,100212.34
2022-09-24T09:47:57.105Z,100210.88
2022-09-24T09:52:04.305Z,100209.34
2022-09-24T09:56:07.971Z,100198.31
2022-09-24T10:00:26.629Z,100188.91
2022-09-24T10:04:39.425Z,100196.69
2022-09-24T10:08:41.055Z,100189.75
2022-09-24T10:12:42.565Z,100180.22
2022-09-24T10:16:54.454Z,100188.00
2022-09-24T10:20:57.751Z,100176.78
2022-09-24T10:25:00.916Z,100178.50
2022-09-24T10:29:21.782Z,100170.75
2022-09-24T10:33:23.857Z,100165.53
2022-09-24T10:37:25.986Z,100164.69
2022-09-24T10:41:30.060Z,100163.81
2022-09-24T10:46:05.154Z,100171.59
2022-09-24T10:50:25.973Z,100170.72
2022-09-24T10:54:57.704Z,100161.06
2022-09-24T10:59:17.737Z,100156.69
2022-09-24T11:03:45.428Z,100167.09
2022-09-24T11:08:08.104Z,100162.84
2022-09-24T11:12:20.688Z,100159.34
2022-09-24T11:16:34.531Z,100157.63
2022-09-24T11:20:39.286Z,100154.16
2022-09-24T11:25:15.673Z,100158.47
2022-09-24T11:29:20.239Z,100152.44
2022-09-24T11:33:53.117Z,100154.16
2022-09-24T11:38:10.215Z,100155.00
2022-09-24T11:42:35.989Z,100148.06
2022-09-24T11:46:47.333Z,100153.22
2022-09-24T11:50:51.752Z,100136.69
2022-09-24T11:55:01.138Z,100131.34
2022-09-24T11:59:14.933Z,100133.78
2022-09-24T12:03:26.203Z,100124.25
2022-09-24T12:07:53.394Z,100111.28
2022-09-24T12:12:02.295Z,100109.63
2022-09-24T12:16:26.799Z,100099.22
2022-09-24T12:20:30.578Z,100096.69
2022-09-24T12:24:45.034Z,100099.22
2022-09-24T12:29:25.012Z,100102.69
2022-09-24T12:33:29.293Z,100094.75
2022-09-24T12:37:38.453Z,100090.34
2022-09-24T12:41:47.936Z,100096.41
2022-09-24T12:46:03.393Z,100090.31
2022-09-24T12:50:08.332Z,100090.38
2022-09-24T12:54:33.017Z,100087.88
2022-09-24T12:58:43.651Z,100088.75
2022-09-24T13:02:47.714Z,100093.94
2022-09-24T13:06:49.931Z,100088.75
2022-09-24T13:10:56.034Z,100085.41
2022-09-24T13:15:16.872Z,100083.84
2022-09-24T13:19:29.005Z,100085.59
2022-09-24T13:23:31.905Z,100089.88
2022-09-24T13:27:38.294Z,100082.97
2022-09-24T13:31:47.499Z,100082.09
2022-09-24T13:36:05.718Z,100074.25
2022-09-24T13:40:18.101Z,100063.84
2022-09-24T13:44:36.613Z,100063.63
2022-09-24T13:48:44.502Z,100061.50
2022-09-24T13:53:04.502Z,100058.66
2022-09-24T13:57:23.181Z,100060.44
2022-09-24T14:01:29.934Z,100063.25
2022-09-24T14:05:38.605Z,100067.78
2022-09-24T14:09:40.134Z,100065.22
2022-09-24T14:13:45.700Z,100058.25
2022-09-24T14:17:59.987Z,100044.25
2022-09-24T14:22:03.325Z,100050.19
2022-09-24T14:26:06.269Z,100048.47
2022-09-24T14:30:17.430Z,100041.75
2022-09-24T14:34:35.675Z,100038.56
2022-09-24T14:38:53.400Z,100049.09
2022-09-24T14:43:02.816Z,100053.56
2022-09-24T14:47:04.543Z,100033.59
2022-09-24T14:51:21.351Z,100029.22
2022-09-24T14:55:39.644Z,100026.59
2022-09-24T14:59:41.646Z,100035.19
2022-09-24T15:03:59.684Z,100036.09
2022-09-24T15:08:22.446Z,100032.72
2022-09-24T15:12:31.288Z,100026.69
2022-09-24T15:16:35.049Z,100024.75
2022-09-24T15:20:37.105Z,100014.00
2022-09-24T15:24:38.901Z,100017.00
2022-09-24T15:28:40.393Z,100016.53
2022-09-24T15:32:41.976Z,100015.88
2022-09-24T15:36:43.770Z,100009.00
2022-09-24T15:40:45.818Z,99998.66
2022-09-24T15:44:47.763Z,100003.88
2022-09-24T15:48:49.252Z,100012.00
2022-09-24T15:52:55.362Z,100015.03
2022-09-24T15:56:56.907Z,100016.19
2022-09-24T16:00:58.560Z,100016.22
2022-09-24T16:05:03.982Z,100015.47
2022-09-24T16:09:06.028Z,100006.97
2022-09-24T16:13:08.078Z,100013.19
2022-09-24T16:17:09.669Z,100031.41
2022-09-24T16:21:11.281Z,100035.75
2022-09-24T16:25:12.790Z,100028.84
2022-09-24T16:29:14.290Z,100034.06
2022-09-24T16:33:15.905Z,100040.13
2022-09-24T16:37:18.318Z,100039.28
2022-09-24T16:41:19.807Z,100039.28
2022-09-24T16:45:21.352Z,100044.47
2022-09-24T16:49:23.831Z,100053.16
2022-09-24T16:53:25.532Z,100055.72
2022-09-24T16:57:27.187Z,100066.97
2022-09-24T17:01:28.797Z,100067.88
2022-09-24T17:05:33.808Z,100070.47
2022-09-24T17:09:53.676Z,100075.53
2022-09-24T17:13:56.297Z,100085.03
2022-09-24T17:17:59.385Z,100079.78
2022-09-24T17:22:01.013Z,100086.66
2022-09-24T17:26:14.069Z,100078.88
2022-09-24T17:30:16.022Z,100087.50
2022-09-24T17:34:17.583Z,100083.22
2022-09-24T17:38:19.068Z,100082.31
2022-09-24T17:42:20.595Z,100081.44
2022-09-24T17:46:22.758Z,100087.41
2022-09-24T17:50:24.683Z,100082.16
2022-09-24T17:54:26.804Z,100087.31
2022-09-24T17:58:28.816Z,100088.97
2022-09-24T18:02:30.457Z,100096.75
2022-09-24T18:06:35.494Z,100087.28
2022-09-24T18:10:37.500Z,100088.16
2022-09-24T18:14:39.891Z,100084.69
2022-09-24T18:18:43.096Z,100089.03
2022-09-24T18:22:45.127Z,100095.03
2022-09-24T18:26:51.317Z,100104.50
2022-09-24T18:31:03.325Z,100105.38
2022-09-24T18:35:07.897Z,100095.06
2022-09-24T18:39:13.217Z,100099.34
2022-09-24T18:43:14.797Z,100112.28
2022-09-24T18:47:17.503Z,100125.19
2022-09-24T18:51:27.366Z,100119.97
2022-09-24T18:55:30.334Z,100119.94
2022-09-24T18:59:38.419Z,100119.06
2022-09-24T19:03:39.942Z,100113.88
2022-09-24T19:07:41.458Z,100113.88
2022-09-24T19:11:45.190Z,100131.94
2022-09-24T19:15:47.126Z,100142.31
2022-09-24T19:19:52.247Z,100166.44
2022-09-24T19:23:56.128Z,100187.97
2022-09-24T19:27:58.047Z,100176.75
2022-09-24T19:31:59.508Z,100179.31
2022-09-24T19:36:03.697Z,100180.16
2022-09-24T19:40:06.003Z,100193.63
2022-09-24T19:44:09.188Z,100197.63
2022-09-24T19:48:11.138Z,100201.91
2022-09-24T19:52:12.634Z,100186.38
2022-09-24T19:56:16.222Z,100193.28
2022-09-24T20:00:17.837Z,100187.19
2022-09-24T20:04:20.410Z,100188.97
2022-09-24T20:08:23.324Z,100198.53
2022-09-24T20:12:24.872Z,100200.31
2022-09-24T20:16:27.604Z,100201.22
2022-09-24T20:20:29.409Z,100197.75
2022-09-24T20:24:31.152Z,100201.22
2022-09-24T20:28:33.064Z,100200.25
2022-09-24T20:32:35.049Z,100205.38
2022-09-24T20:36:36.771Z,100211.41
2022-09-24T20:40:40.017Z,100203.72
2022-09-24T20:44:41.616Z,100200.22
2022-09-24T20:48:43.434Z,100209.66
2022-09-24T20:52:45.568Z,100214.84
2022-09-24T20:56:47.159Z,100214.00
2022-09-24T21:00:54.613Z,100209.72
2022-09-24T21:04:56.159Z,100208.81
2022-09-24T21:08:57.677Z,100199.31
2022-09-24T21:12:59.171Z,100201.84
2022-09-24T21:17:00.644Z,100199.25
2022-09-24T21:21:07.447Z,100198.34
2022-09-24T21:25:09.415Z,100200.81
2022-09-24T21:29:15.352Z,100201.72
2022-09-24T21:33:16.867Z,100198.22
2022-09-24T21:37:18.459Z,100192.19
2022-09-24T21:41:21.807Z,100191.25
2022-09-24T21:45:23.351Z,100192.97
2022-09-24T21:49:24.917Z,100198.16
2022-09-24T21:53:26.521Z,100192.19
2022-09-24T21:57:28.070Z,100186.19
2022-09-24T22:01:33.669Z,100183.63
2022-09-24T22:05:42.847Z,100190.56
2022-09-24T22:09:44.356Z,100178.50
2022-09-24T22:13:46.750Z,100180.22
2022-09-24T22:17:48.277Z,100171.47
2022-09-24T22:21:49.747Z,100180.75
2022-09-24T22:25:55.786Z,100172.88
2022-09-24T22:29:57.861Z,100175.53
2022-09-24T22:34:18.226Z,100179.97
2022-09-24T22:38:19.736Z,100167.16
2022-09-24T22:42:21.344Z,100170.56
2022-09-24T22:46:27.251Z,100172.13
2022-09-24T22:50:29.095Z,100175.53
2022-09-24T22:54:30.636Z,100177.94
2022-09-24T22:58:33.769Z,100189.03
2022-09-24T23:02:35.371Z,100190.91
2022-09-24T23:06:37.854Z,100189.28
2022-09-24T23:10:39.386Z,100192.69
2022-09-24T23:14:41.434Z,100175.50
2022-09-24T23:18:45.185Z,100178.13
2022-09-24T23:22:46.682Z,100180.72
2022-09-24T23:26:48.207Z,100174.69
2022-09-24T23:30:59.288Z,100173.75
2022-09-24T23:35:01.834Z,100175.50
2022-09-24T23:39:04.608Z,100179.69
2022-09-24T23:43:06.191Z,100176.19
2022-09-24T23:47:08.013Z,100175.22
2022-09-24T23:51:10.426Z,100175.88
2022-09-24T23:55:11.940Z,100168.97
2022-09-24T23:59:13.436Z,100168.03
